Time;durP1;ratioP1;P1;durP2;ratioP2;P2;SDS_P1;SDS_P2;PMS_P1;PMS_P2;Temp;Humidity;BMP_temperature;BMP_pressure;BME280_temperature;BME280_humidity;BME280_pressure;Samples;Min_cycle;Max_cycle;Signal;HPM_P1;HPM_P2
2023/07/18 00:03:51;;;;;;;;;;;;;;;20.66;100.00;96218.06;10478739;28;2025;-66
2023/07/18 00:08:54;;;;;;;;;;;;;;;20.70;100.00;96226.41;10478974;28;1970;-67
2023/07/18 00:13:58;;;;;;;;;;;;;;;20.62;100.00;96232.72;10468274;28;1878;-68
2023/07/18 00:19:01;;;;;;;;;;;;;;;20.64;100.00;96225.00;10467469;28;1896;-67
2023/07/18 00:30:13;;;;;;;;;;;;;;;20.42;100.00;96229.53;10463154;28;1995;-67
2023/07/18 00:35:17;;;;;;;;;;;;;;;20.39;100.00;96234.84;10451915;28;3809;-66
2023/07/18 00:40:20;;;;;;;;;;;;;;;20.47;100.00;96232.09;10473100;28;5099;-67
2023/07/18 00:45:23;;;;;;;;;;;;;;;20.61;100.00;96231.09;10479491;28;2049;-67
2023/07/18 00:50:26;;;;;;;;;;;;;;;20.57;100.00;96220.03;10480713;28;1960;-67
2023/07/18 00:55:32;;;;;;;;;;;;;;;20.59;100.00;96223.22;10478005;28;1956;-66
2023/07/18 01:00:35;;;;;;;;;;;;;;;20.44;100.00;96227.28;10482875;28;1913;-66
2023/07/18 01:05:39;;;;;;;;;;;;;;;20.44;100.00;96221.81;10479861;28;2056;-66
2023/07/18 01:10:41;;;;;;;;;;;;;;;20.48;100.00;96220.03;10481475;28;1996;-66
2023/07/18 01:15:46;;;;;;;;;;;;;;;20.34;100.00;96200.31;10479251;28;2000;-66
2023/07/18 01:20:49;;;;;;;;;;;;;;;20.13;100.00;96194.75;10479735;28;1972;-66
2023/07/18 01:25:54;;;;;;;;;;;;;;;19.91;100.00;96197.66;10473703;28;2003;-66
2023/07/18 01:30:59;;;;;;;;;;;;;;;19.82;100.00;96188.69;10477201;28;1988;-67
2023/07/18 01:36:02;;;;;;;;;;;;;;;19.66;100.00;96186.47;10478655;28;2267;-66
2023/07/18 01:41:07;;;;;;;;;;;;;;;19.43;100.00;96183.06;10458918;28;2022;-67
2023/07/18 01:46:12;;;;;;;;;;;;;;;19.35;100.00;96177.59;10478291;28;2027;-66
2023/07/18 01:51:15;;;;;;;;;;;;;;;19.45;100.00;96183.53;10476437;28;1997;-67
2023/07/18 01:56:18;;;;;;;;;;;;;;;19.26;100.00;96193.94;10475753;28;1948;-67
2023/07/18 02:01:21;;;;;;;;;;;;;;;19.10;100.00;96184.63;10474990;28;2243;-67
2023/07/18 02:06:25;;;;;;;;;;;;;;;19.02;100.00;96178.06;10468248;28;2115;-67
2023/07/18 02:11:28;;;;;;;;;;;;;;;19.05;100.00;96173.88;10477298;28;2317;-67
2023/07/18 02:16:31;;;;;;;;;;;;;;;19.12;100.00;96179.66;10470476;28;1993;-67
2023/07/18 02:21:36;;;;;;;;;;;;;;;19.13;100.00;96179.31;10461578;28;1996;-67
2023/07/18 02:26:39;;;;;;;;;;;;;;;19.26;100.00;96183.03;10476937;28;1988;-67
2023/07/18 02:31:45;;;;;;;;;;;;;;;19.27;100.00;96173.72;10475370;28;2416;-67
2023/07/18 02:36:48;;;;;;;;;;;;;;;19.16;100.00;96178.72;10474010;28;2027;-67
2023/07/18 02:41:51;;;;;;;;;;;;;;;19.13;100.00;96173.06;10474762;28;5105;-67
2023/07/18 02:46:55;;;;;;;;;;;;;;;19.07;100.00;96177.06;10478778;28;2015;-66
2023/07/18 02:51:58;;;;;;;;;;;;;;;19.03;100.00;96165.22;10473639;28;1944;-66
2023/07/18 02:57:01;;;;;;;;;;;;;;;19.15;100.00;96168.13;10473206;28;2023;-67
2023/07/18 03:02:04;;;;;;;;;;;;;;;18.94;100.00;96169.84;10454220;28;2113;-67
2023/07/18 03:07:07;;;;;;;;;;;;;;;18.94;100.00;96172.56;10460158;28;2033;-66
2023/07/18 03:12:11;;;;;;;;;;;;;;;18.88;100.00;96166.47;10472849;28;1940;-66
2023/07/18 03:17:15;;;;;;;;;;;;;;;18.83;100.00;96181.06;10473213;28;2127;-67
2023/07/18 03:22:18;;;;;;;;;;;;;;;18.73;100.00;96175.88;10454808;28;2074;-67
2023/07/18 03:27:23;;;;;;;;;;;;;;;18.67;100.00;96177.13;10471389;28;2207;-68
2023/07/18 03:32:26;;;;;;;;;;;;;;;18.76;100.00;96169.78;10465907;28;1977;-66
2023/07/18 03:37:31;;;;;;;;;;;;;;;18.65;100.00;96168.47;10474115;28;1992;-66
2023/07/18 03:42:34;;;;;;;;;;;;;;;18.58;100.00;96181.72;10475281;28;5047;-66
2023/07/18 03:47:37;;;;;;;;;;;;;;;18.77;100.00;96176.88;10469244;28;2184;-66
2023/07/18 03:52:41;;;;;;;;;;;;;;;18.74;100.00;96171.22;10465628;28;1968;-68
2023/07/18 03:57:44;;;;;;;;;;;;;;;18.63;100.00;96168.75;10469096;28;2013;-67
2023/07/18 04:02:49;;;;;;;;;;;;;;;18.71;100.00;96167.22;10473099;28;2053;-67
2023/07/18 04:07:52;;;;;;;;;;;;;;;18.87;100.00;96167.59;10475722;28;2140;-66
2023/07/18 04:12:55;;;;;;;;;;;;;;;18.96;100.00;96162.13;10468062;28;1964;-67
2023/07/18 04:18:00;;;;;;;;;;;;;;;19.08;100.00;96171.31;10476563;28;2195;-68
2023/07/18 04:23:03;;;;;;;;;;;;;;;19.62;100.00;96163.69;10476838;28;2479;-68
2023/07/18 04:28:06;;;;;;;;;;;;;;;20.02;100.00;96149.00;10475611;28;2004;-67
2023/07/18 04:33:12;;;;;;;;;;;;;;;20.02;100.00;96149.00;10472527;28;2247;-72
2023/07/18 04:38:15;;;;;;;;;;;;;;;20.02;100.00;96147.09;10478469;28;2177;-68
2023/07/18 04:43:19;;;;;;;;;;;;;;;20.26;100.00;96132.91;10466813;28;5169;-67
2023/07/18 04:48:22;;;;;;;;;;;;;;;20.18;100.00;96131.00;10479677;28;2045;-68
2023/07/18 04:53:25;;;;;;;;;;;;;;;20.66;100.00;96129.84;10475505;28;1925;-71
2023/07/18 04:58:28;;;;;;;;;;;;;;;20.59;100.00;96118.66;10462315;28;2020;-71
2023/07/18 05:03:31;;;;;;;;;;;;;;;20.74;100.00;96109.88;10475686;28;1972;-69
2023/07/18 05:08:55;;;;;;;;;;;;;;;20.60;100.00;96115.56;10472983;28;2038;-67
2023/07/18 05:13:58;;;;;;;;;;;;;;;21.00;100.00;96124.19;10475264;28;1989;-67
2023/07/18 05:19:00;;;;;;;;;;;;;;;20.91;100.00;96123.44;10472025;28;2270;-66
2023/07/18 05:24:05;;;;;;;;;;;;;;;21.56;100.00;96138.41;10473613;28;1909;-67
2023/07/18 05:29:07;;;;;;;;;;;;;;;22.07;100.00;96128.09;10474822;28;2150;-66
2023/07/18 05:34:10;;;;;;;;;;;;;;;21.54;100.00;96110.59;10480068;28;2076;-66
2023/07/18 05:39:13;;;;;;;;;;;;;;;21.72;100.00;96116.72;10486266;28;1898;-66
2023/07/18 05:44:17;;;;;;;;;;;;;;;22.39;100.00;96115.53;10480916;28;1918;-66
2023/07/18 05:49:19;;;;;;;;;;;;;;;22.16;99.54;96113.56;10471355;28;1881;-66
2023/07/18 05:54:22;;;;;;;;;;;;;;;22.72;99.83;96113.84;10474648;28;1898;-69
2023/07/18 05:59:25;;;;;;;;;;;;;;;22.99;98.27;96113.16;10474164;28;2030;-67
2023/07/18 06:04:28;;;;;;;;;;;;;;;22.39;98.47;96107.31;10475226;28;1906;-67
2023/07/18 06:09:31;;;;;;;;;;;;;;;22.99;98.60;96098.66;10475784;28;1952;-67
2023/07/18 06:14:38;;;;;;;;;;;;;;;22.80;96.54;96101.94;10483286;28;2352;-67
2023/07/18 06:19:41;;;;;;;;;;;;;;;22.97;95.99;96104.47;10457770;28;1910;-67
2023/07/18 06:24:45;;;;;;;;;;;;;;;22.99;94.25;96096.69;10471056;28;1983;-68
2023/07/18 06:29:48;;;;;;;;;;;;;;;23.58;89.59;96098.81;10467093;28;1906;-68
2023/07/18 06:34:51;;;;;;;;;;;;;;;23.55;84.30;96094.03;10465923;28;1850;-67
2023/07/18 06:39:55;;;;;;;;;;;;;;;23.56;87.09;96090.13;10458035;28;5145;-66
2023/07/18 06:44:58;;;;;;;;;;;;;;;23.45;87.25;96080.81;10462053;28;1898;-67
2023/07/18 06:50:03;;;;;;;;;;;;;;;23.71;80.66;96072.94;10459081;28;2018;-70
2023/07/18 06:55:10;;;;;;;;;;;;;;;24.04;84.82;96069.09;10462059;28;1843;-70
2023/07/18 07:00:14;;;;;;;;;;;;;;;23.71;78.30;96074.88;10459160;28;1916;-70
2023/07/18 07:05:16;;;;;;;;;;;;;;;23.87;78.02;96075.72;10462174;28;2001;-71
2023/07/18 07:10:19;;;;;;;;;;;;;;;24.06;74.70;96071.50;10460174;28;2384;-69
2023/07/18 07:15:22;;;;;;;;;;;;;;;24.36;68.69;96064.44;10441383;28;1899;-73
2023/07/18 07:20:25;;;;;;;;;;;;;;;24.38;68.29;96053.09;10460181;28;1869;-73
2023/07/18 07:25:29;;;;;;;;;;;;;;;24.62;69.00;96052.09;10462872;28;1949;-73
2023/07/18 07:30:32;;;;;;;;;;;;;;;24.90;66.21;96035.44;10458530;28;1885;-69
2023/07/18 07:35:36;;;;;;;;;;;;;;;25.13;66.11;96036.38;10463819;28;1885;-70
2023/07/18 07:40:39;;;;;;;;;;;;;;;25.33;64.20;96024.22;10460597;28;5030;-70
2023/07/18 07:45:42;;;;;;;;;;;;;;;25.85;61.35;96014.63;10457485;28;1971;-71
2023/07/18 07:50:48;;;;;;;;;;;;;;;25.10;62.81;96014.28;10467168;28;1886;-72
2023/07/18 07:55:51;;;;;;;;;;;;;;;25.56;63.86;96021.50;10465891;28;1838;-71
2023/07/18 08:00:54;;;;;;;;;;;;;;;25.65;63.15;96013.03;10446820;28;1923;-71
2023/07/18 08:05:58;;;;;;;;;;;;;;;26.03;65.12;96011.38;10464885;28;2433;-71
2023/07/18 08:11:00;;;;;;;;;;;;;;;25.85;60.70;96002.81;10448571;28;1890;-70
2023/07/18 08:16:05;;;;;;;;;;;;;;;25.26;61.79;95991.06;10467071;28;2004;-69
2023/07/18 08:21:08;;;;;;;;;;;;;;;25.42;61.26;95982.72;10464693;28;1869;-71
2023/07/18 08:26:11;;;;;;;;;;;;;;;25.48;61.49;95977.72;10462371;28;1906;-74
2023/07/18 08:31:14;;;;;;;;;;;;;;;26.08;63.80;95969.72;10464574;28;1894;-71
2023/07/18 08:36:22;;;;;;;;;;;;;;;26.52;62.62;95967.28;10478959;28;1929;-73
2023/07/18 08:41:28;;;;;;;;;;;;;;;26.42;60.16;95961.63;10435717;28;1993;-71
2023/07/18 08:46:33;;;;;;;;;;;;;;;26.50;61.03;95957.81;10476330;28;1975;-72
2023/07/18 08:51:39;;;;;;;;;;;;;;;26.07;61.06;95954.38;10475514;28;2037;-71
2023/07/18 08:56:45;;;;;;;;;;;;;;;26.40;63.17;95938.00;10475626;28;1894;-72
2023/07/18 09:01:49;;;;;;;;;;;;;;;26.91;64.53;95936.69;10479655;28;2357;-72
2023/07/18 09:06:52;;;;;;;;;;;;;;;27.09;61.14;95931.41;10476690;28;1914;-69
2023/07/18 09:11:55;;;;;;;;;;;;;;;26.71;63.07;95925.00;10473054;28;1953;-71
2023/07/18 09:17:03;;;;;;;;;;;;;;;26.89;62.43;95920.53;10476604;28;1886;-71
2023/07/18 09:22:07;;;;;;;;;;;;;;;27.14;62.91;95920.06;10479057;28;1886;-73
2023/07/18 09:27:11;;;;;;;;;;;;;;;26.88;63.44;95901.59;10477750;28;1898;-77
2023/07/18 09:32:14;;;;;;;;;;;;;;;27.31;60.53;95891.88;10480898;28;1917;-73
2023/07/18 09:37:17;;;;;;;;;;;;;;;26.61;64.05;95898.91;10480608;28;1975;-78
2023/07/18 09:42:23;;;;;;;;;;;;;;;26.59;65.01;95897.69;10475739;28;5010;-75
2023/07/18 09:47:26;;;;;;;;;;;;;;;27.18;66.62;95893.31;10475862;28;1952;-77
2023/07/18 09:52:31;;;;;;;;;;;;;;;27.18;64.97;95896.06;10480571;28;1811;-74
2023/07/18 09:57:34;;;;;;;;;;;;;;;27.51;68.17;95888.91;10478462;28;2282;-77
2023/07/18 10:02:37;;;;;;;;;;;;;;;27.57;68.57;95881.84;10457575;28;1993;-77
2023/07/18 10:07:40;;;;;;;;;;;;;;;27.26;68.29;95877.63;10477204;28;1988;-76
2023/07/18 10:12:46;;;;;;;;;;;;;;;27.59;67.12;95873.97;10479695;28;1893;-76
2023/07/18 10:17:52;;;;;;;;;;;;;;;27.38;67.80;95869.84;10482435;28;1905;-75
2023/07/18 10:22:57;;;;;;;;;;;;;;;27.87;69.63;95860.44;10476860;28;1864;-77
2023/07/18 10:28:00;;;;;;;;;;;;;;;27.62;69.50;95862.97;10472320;28;1979;-77
2023/07/18 10:33:08;;;;;;;;;;;;;;;27.84;67.52;95858.44;10472315;28;1926;-78
2023/07/18 10:38:11;;;;;;;;;;;;;;;28.15;67.58;95853.50;10466819;28;2024;-76
2023/07/18 10:43:15;;;;;;;;;;;;;;;28.12;66.44;95863.38;10475071;28;5197;-76
2023/07/18 10:48:18;;;;;;;;;;;;;;;28.94;65.39;95849.97;10469866;28;1910;-76
2023/07/18 10:53:23;;;;;;;;;;;;;;;29.69;61.58;95836.28;10464220;28;1920;-80
2023/07/18 10:58:26;;;;;;;;;;;;;;;30.35;60.54;95844.94;10465588;28;2230;-77
2023/07/18 11:03:31;;;;;;;;;;;;;;;30.75;58.90;95831.75;10474317;28;1831;-77
2023/07/18 11:08:34;;;;;;;;;;;;;;;30.31;57.49;95837.81;10479633;28;1981;-75
2023/07/18 11:13:36;;;;;;;;;;;;;;;30.08;58.84;95830.69;10478884;28;2236;-76
2023/07/18 11:18:40;;;;;;;;;;;;;;;31.37;54.30;95847.69;10474170;28;1953;-74
2023/07/18 11:23:43;;;;;;;;;;;;;;;31.72;50.87;95854.19;10484072;28;1775;-76
2023/07/18 11:28:45;;;;;;;;;;;;;;;31.94;49.43;95857.63;10476448;28;1992;-75
2023/07/18 11:33:51;;;;;;;;;;;;;;;31.96;49.15;95858.78;10478184;28;1848;-74
2023/07/18 11:38:54;;;;;;;;;;;;;;;32.00;48.11;95853.16;10480455;28;1956;-77
2023/07/18 11:43:57;;;;;;;;;;;;;;;31.75;48.28;95829.16;10477475;28;4995;-77
2023/07/18 11:49:00;;;;;;;;;;;;;;;30.92;49.73;95799.53;10462166;28;2160;-79
2023/07/18 11:54:05;;;;;;;;;;;;;;;30.86;49.56;95784.53;10465846;28;2278;-77
2023/07/18 11:59:08;;;;;;;;;;;;;;;29.41;53.82;95748.44;10436432;28;1948;-74
2023/07/18 12:04:11;;;;;;;;;;;;;;;28.88;56.10;95579.59;10457483;28;1914;-71
2023/07/18 12:09:14;;;;;;;;;;;;;;;28.16;58.65;95576.78;10456586;28;2022;-73
2023/07/18 12:14:17;;;;;;;;;;;;;;;29.27;58.93;95753.97;10457695;28;1835;-70
2023/07/18 12:19:21;;;;;;;;;;;;;;;29.58;59.06;95796.72;10457454;28;2135;-72
2023/07/18 12:24:23;;;;;;;;;;;;;;;29.17;57.74;95899.47;10436760;28;1901;-73
2023/07/18 12:29:26;;;;;;;;;;;;;;;28.86;59.94;95936.88;10458171;28;2003;-70
2023/07/18 12:34:29;;;;;;;;;;;;;;;28.19;64.11;95976.75;10464842;28;1975;-70
2023/07/18 12:39:32;;;;;;;;;;;;;;;27.76;65.44;96028.03;10465558;28;1890;-70
2023/07/18 12:44:35;;;;;;;;;;;;;;;27.72;78.04;96057.56;10465710;28;5451;-71
2023/07/18 12:49:38;;;;;;;;;;;;;;;27.01;90.71;96068.47;10465281;28;2426;-71
2023/07/18 12:54:43;;;;;;;;;;;;;;;25.74;100.00;96090.72;10462876;28;1996;-69
2023/07/18 12:59:47;;;;;;;;;;;;;;;25.12;100.00;96092.53;10464555;28;1831;-69
2023/07/18 13:04:51;;;;;;;;;;;;;;;24.80;100.00;96029.34;10463954;28;2020;-71
2023/07/18 13:09:53;;;;;;;;;;;;;;;24.57;100.00;95943.25;10462315;28;1946;-69
2023/07/18 13:14:56;;;;;;;;;;;;;;;24.16;100.00;95925.41;10469850;28;1942;-71
2023/07/18 13:19:59;;;;;;;;;;;;;;;23.82;100.00;95814.41;10473936;28;1965;-69
2023/07/18 13:25:03;;;;;;;;;;;;;;;24.21;100.00;95804.28;10471598;28;2088;-70
2023/07/18 13:30:06;;;;;;;;;;;;;;;24.68;100.00;95765.59;10470578;28;1987;-71
2023/07/18 13:35:09;;;;;;;;;;;;;;;25.39;100.00;95646.97;10473452;28;2080;-72
2023/07/18 13:40:11;;;;;;;;;;;;;;;26.31;100.00;95626.06;10473612;28;5022;-71
2023/07/18 13:45:14;;;;;;;;;;;;;;;26.89;99.97;95610.81;10470171;28;1871;-71
2023/07/18 13:50:17;;;;;;;;;;;;;;;27.26;91.57;95657.63;10473653;28;2054;-70
2023/07/18 13:55:31;;;;;;;;;;;;;;;27.08;93.83;95707.16;10474385;28;1917;-72
2023/07/18 14:00:35;;;;;;;;;;;;;;;27.35;94.50;95754.66;10472121;28;1909;-70
2023/07/18 14:05:38;;;;;;;;;;;;;;;27.50;92.08;95779.66;10457723;28;1981;-71
2023/07/18 14:10:41;;;;;;;;;;;;;;;28.08;90.76;95757.56;10469924;28;1967;-74
2023/07/18 14:15:44;;;;;;;;;;;;;;;28.08;92.87;95723.59;10476142;28;1949;-71
2023/07/18 14:20:47;;;;;;;;;;;;;;;27.59;92.11;95687.00;10475436;28;1854;-71
2023/07/18 14:25:50;;;;;;;;;;;;;;;27.97;92.99;95668.28;10471696;28;1941;-70
2023/07/18 14:30:53;;;;;;;;;;;;;;;27.73;90.58;95625.56;10478783;28;1981;-70
2023/07/18 14:35:57;;;;;;;;;;;;;;;27.86;87.59;95607.47;10473431;28;1889;-72
2023/07/18 14:41:00;;;;;;;;;;;;;;;28.66;80.85;95576.84;10467664;28;1902;-72
2023/07/18 14:46:03;;;;;;;;;;;;;;;29.48;76.42;95601.66;10471326;28;2059;-71
2023/07/18 14:51:06;;;;;;;;;;;;;;;28.82;77.97;95629.03;10440393;28;1835;-73
2023/07/18 14:56:10;;;;;;;;;;;;;;;28.18;80.52;95643.50;10468421;28;1936;-71
2023/07/18 15:01:12;;;;;;;;;;;;;;;28.68;79.59;95662.19;10461812;28;1875;-72
2023/07/18 15:06:15;;;;;;;;;;;;;;;28.92;78.59;95666.97;10460138;28;1940;-72
2023/07/18 15:11:19;;;;;;;;;;;;;;;28.81;79.71;95682.75;10466581;28;1897;-71
2023/07/18 15:16:21;;;;;;;;;;;;;;;28.74;80.88;95678.00;10469061;28;2116;-72
2023/07/18 15:21:25;;;;;;;;;;;;;;;28.46;84.14;95684.28;10470534;28;1874;-70
2023/07/18 15:26:28;;;;;;;;;;;;;;;28.33;86.16;95652.66;10467547;28;2017;-72
2023/07/18 15:31:32;;;;;;;;;;;;;;;28.50;86.62;95646.38;10470756;28;1823;-71
2023/07/18 15:36:37;;;;;;;;;;;;;;;28.66;85.94;95603.72;10474536;28;2300;-71
2023/07/18 15:41:40;;;;;;;;;;;;;;;29.06;84.65;95567.34;10472791;28;5087;-74
2023/07/18 15:46:45;;;;;;;;;;;;;;;28.15;92.08;95585.47;10472903;28;1909;-72
2023/07/18 15:51:48;;;;;;;;;;;;;;;28.80;86.60;95578.81;10473039;28;1880;-72
2023/07/18 15:56:52;;;;;;;;;;;;;;;28.70;89.84;95524.31;10473707;28;1910;-72
2023/07/18 16:01:55;;;;;;;;;;;;;;;28.26;91.65;95462.69;10470081;28;1810;-75
2023/07/18 16:06:58;;;;;;;;;;;;;;;28.63;87.88;95471.75;10475607;28;1902;-73
2023/07/18 16:12:00;;;;;;;;;;;;;;;28.22;88.24;95477.69;10479238;28;1895;-75
2023/07/18 16:17:04;;;;;;;;;;;;;;;29.70;78.91;95472.22;10480982;28;1917;-73
2023/07/18 16:22:06;;;;;;;;;;;;;;;29.71;77.98;95470.22;10484095;28;1927;-76
2023/07/18 16:27:09;;;;;;;;;;;;;;;29.40;78.14;95461.69;10484477;28;1933;-74
2023/07/18 16:32:12;;;;;;;;;;;;;;;28.97;80.36;95414.81;10481044;28;2392;-75
2023/07/18 16:37:17;;;;;;;;;;;;;;;28.92;79.72;95431.81;10482649;28;1983;-75
2023/07/18 16:42:21;;;;;;;;;;;;;;;28.58;81.19;95450.06;10481987;28;5065;-75
2023/07/18 16:47:26;;;;;;;;;;;;;;;28.25;79.50;95452.84;10474359;28;1981;-76
2023/07/18 16:52:31;;;;;;;;;;;;;;;27.91;78.40;95459.91;10463328;28;2226;-76
2023/07/18 16:57:34;;;;;;;;;;;;;;;27.67;82.02;95458.66;10484508;28;1949;-74
2023/07/18 17:02:36;;;;;;;;;;;;;;;27.37;86.13;95459.78;10475969;28;2048;-75
2023/07/18 17:07:40;;;;;;;;;;;;;;;27.34;86.82;95477.09;10476860;28;1910;-75
2023/07/18 17:12:43;;;;;;;;;;;;;;;27.32;90.25;95484.19;10473205;28;1898;-76
2023/07/18 17:17:48;;;;;;;;;;;;;;;27.26;91.92;95478.25;10466755;28;1938;-74
2023/07/18 17:22:53;;;;;;;;;;;;;;;27.12;90.63;95476.25;10455581;28;2149;-75
2023/07/18 17:27:56;;;;;;;;;;;;;;;26.87;92.62;95470.56;10484054;28;2476;-76
2023/07/18 17:33:00;;;;;;;;;;;;;;;26.71;95.66;95472.81;10477934;28;1905;-75
2023/07/18 17:38:04;;;;;;;;;;;;;;;26.59;93.20;95481.41;10454573;28;1823;-77
2023/07/18 17:43:09;;;;;;;;;;;;;;;26.61;95.11;95481.84;10459665;28;5383;-74
2023/07/18 17:48:11;;;;;;;;;;;;;;;26.52;96.42;95490.44;10475691;28;1909;-76
2023/07/18 17:53:14;;;;;;;;;;;;;;;26.46;96.32;95478.19;10479483;28;2112;-74
2023/07/18 17:58:18;;;;;;;;;;;;;;;26.30;97.77;95486.72;10478880;28;1889;-76
2023/07/18 18:03:22;;;;;;;;;;;;;;;26.14;97.78;95477.91;10475201;28;1906;-75
2023/07/18 18:08:25;;;;;;;;;;;;;;;25.99;99.42;95492.72;10471704;28;1977;-76
2023/07/18 18:13:28;;;;;;;;;;;;;;;25.86;100.00;95501.28;10470128;28;1885;-74
2023/07/18 18:18:31;;;;;;;;;;;;;;;25.78;100.00;95499.63;10479455;28;1826;-71
2023/07/18 18:23:34;;;;;;;;;;;;;;;25.60;100.00;95499.41;10465952;28;1859;-72
2023/07/18 18:28:42;;;;;;;;;;;;;;;25.40;100.00;95502.72;10474843;28;2291;-72
2023/07/18 18:33:47;;;;;;;;;;;;;;;25.27;100.00;95507.69;10470707;28;1889;-72
2023/07/18 18:38:53;;;;;;;;;;;;;;;25.27;100.00;95524.97;10472285;28;1925;-72
2023/07/18 18:43:56;;;;;;;;;;;;;;;25.24;100.00;95530.41;10475988;28;5021;-73
2023/07/18 18:49:01;;;;;;;;;;;;;;;25.06;100.00;95538.44;10467564;28;1914;-73
2023/07/18 18:54:08;;;;;;;;;;;;;;;25.09;100.00;95542.41;10475807;28;1929;-72
2023/07/18 18:59:21;;;;;;;;;;;;;;;25.09;100.00;95540.44;10472553;28;1885;-71
2023/07/18 19:04:24;;;;;;;;;;;;;;;24.91;100.00;95542.13;10473389;28;1925;-70
2023/07/18 19:09:39;;;;;;;;;;;;;;;24.83;100.00;95533.00;10480629;28;2336;-70
2023/07/18 19:14:42;;;;;;;;;;;;;;;24.65;100.00;95520.94;10455595;28;2010;-73
2023/07/18 19:19:45;;;;;;;;;;;;;;;24.39;100.00;95497.00;10475969;28;1977;-71
2023/07/18 19:24:48;;;;;;;;;;;;;;;24.15;100.00;95501.69;10481033;28;2248;-70
2023/07/18 19:29:51;;;;;;;;;;;;;;;23.96;100.00;95490.78;10462063;28;1910;-70
2023/07/18 19:34:54;;;;;;;;;;;;;;;23.80;100.00;95484.63;10455944;28;1876;-71
2023/07/18 19:39:56;;;;;;;;;;;;;;;23.91;100.00;95478.13;10475475;28;5087;-70
2023/07/18 19:44:59;;;;;;;;;;;;;;;23.96;100.00;95488.03;10475259;28;1834;-70
2023/07/18 19:50:05;;;;;;;;;;;;;;;24.03;100.00;95488.16;10481504;28;1952;-71
2023/07/18 19:55:08;;;;;;;;;;;;;;;24.03;100.00;95490.91;10488054;28;1922;-70
2023/07/18 20:00:11;;;;;;;;;;;;;;;23.97;100.00;95473.13;10476731;28;2002;-70
2023/07/18 20:05:14;;;;;;;;;;;;;;;23.99;100.00;95479.09;10478928;28;1857;-71
2023/07/18 20:10:16;;;;;;;;;;;;;;;23.95;100.00;95481.75;10479965;28;1983;-70
2023/07/18 20:15:19;;;;;;;;;;;;;;;23.95;100.00;95483.72;10480067;28;1893;-68
2023/07/18 20:20:22;;;;;;;;;;;;;;;24.04;100.00;95486.97;10483285;28;2245;-69
2023/07/18 20:25:26;;;;;;;;;;;;;;;24.06;100.00;95503.91;10473859;28;1876;-69
2023/07/18 20:30:30;;;;;;;;;;;;;;;24.12;100.00;95518.91;10475595;28;1906;-69
2023/07/18 20:35:33;;;;;;;;;;;;;;;24.08;100.00;95548.25;10480601;28;2049;-69
2023/07/18 20:40:36;;;;;;;;;;;;;;;24.01;100.00;95526.16;10460775;28;5069;-71
2023/07/18 20:45:40;;;;;;;;;;;;;;;23.90;100.00;95530.66;10475523;28;1873;-75
2023/07/18 20:50:43;;;;;;;;;;;;;;;23.97;100.00;95525.31;10458453;28;1926;-74
2023/07/18 20:55:47;;;;;;;;;;;;;;;24.03;100.00;95709.75;10474300;28;1997;-73
2023/07/18 21:00:50;;;;;;;;;;;;;;;23.59;100.00;95578.28;10459458;28;1985;-79
2023/07/18 21:05:53;;;;;;;;;;;;;;;;;;10482446;28;2201;-77
2023/07/18 21:10:56;;;;;;;;;;;;;;;21.47;100.00;95573.53;10474111;28;2017;-77
2023/07/18 21:15:59;;;;;;;;;;;;;;;21.03;100.00;95595.28;10471672;28;2184;-75
2023/07/18 21:21:01;;;;;;;;;;;;;;;20.90;100.00;95580.06;10477073;28;1901;-76
2023/07/18 21:26:05;;;;;;;;;;;;;;;20.96;100.00;95568.53;10457738;28;1934;-76
2023/07/18 21:31:07;;;;;;;;;;;;;;;21.03;100.00;95568.75;10475083;28;1962;-76
2023/07/18 21:36:11;;;;;;;;;;;;;;;21.11;100.00;95563.50;10478709;28;1893;-76
2023/07/18 21:41:15;;;;;;;;;;;;;;;21.13;100.00;95567.50;10475825;28;5070;-76
2023/07/18 21:46:18;;;;;;;;;;;;;;;20.99;100.00;95542.44;10481225;28;1976;-77
2023/07/18 21:51:21;;;;;;;;;;;;;;;20.89;100.00;95542.94;10461509;28;1931;-75
2023/07/18 21:56:24;;;;;;;;;;;;;;;20.85;100.00;95526.44;10477866;28;1898;-76
2023/07/18 22:01:27;;;;;;;;;;;;;;;20.78;100.00;95537.16;10477750;28;1949;-76
2023/07/18 22:06:29;;;;;;;;;;;;;;;20.75;100.00;95522.25;10481092;28;1918;-76
2023/07/18 22:11:34;;;;;;;;;;;;;;;20.73;100.00;95521.78;10479506;28;1979;-78
2023/07/18 22:16:37;;;;;;;;;;;;;;;20.72;100.00;95524.88;10478089;28;2106;-77
2023/07/18 22:21:40;;;;;;;;;;;;;;;20.71;100.00;95543.19;10474095;28;1854;-77
2023/07/18 22:26:42;;;;;;;;;;;;;;;20.89;100.00;95546.47;10482364;28;1823;-77
2023/07/18 22:31:46;;;;;;;;;;;;;;;20.97;100.00;95534.59;10475956;28;1989;-77
2023/07/18 22:36:50;;;;;;;;;;;;;;;21.02;100.00;95531.63;10487593;28;1909;-78
2023/07/18 22:41:53;;;;;;;;;;;;;;;20.87;100.00;95517.91;10478824;28;5140;-76
2023/07/18 22:46:57;;;;;;;;;;;;;;;20.64;100.00;95507.47;10483412;28;1780;-77
2023/07/18 22:52:00;;;;;;;;;;;;;;;20.47;100.00;95511.25;10475639;28;1963;-75
2023/07/18 22:57:03;;;;;;;;;;;;;;;20.39;100.00;95501.22;10477198;28;1894;-75
2023/07/18 23:02:07;;;;;;;;;;;;;;;20.38;100.00;95507.03;10476588;28;2127;-77
2023/07/18 23:07:10;;;;;;;;;;;;;;;20.41;100.00;95518.06;10480960;28;2216;-77
2023/07/18 23:12:15;;;;;;;;;;;;;;;20.71;100.00;95512.38;10480725;28;2036;-77
2023/07/18 23:17:18;;;;;;;;;;;;;;;20.94;100.00;95513.44;10479609;28;1905;-78
2023/07/18 23:22:20;;;;;;;;;;;;;;;21.27;100.00;95504.22;10476975;28;1898;-78
2023/07/18 23:27:24;;;;;;;;;;;;;;;21.29;100.00;95488.28;10474773;28;1886;-77
2023/07/18 23:32:27;;;;;;;;;;;;;;;21.19;100.00;95488.78;10473092;28;1914;-77
2023/07/18 23:37:30;;;;;;;;;;;;;;;21.13;100.00;95490.16;10474632;28;1901;-77
2023/07/18 23:42:33;;;;;;;;;;;;;;;21.07;100.00;95480.63;10473229;28;5066;-77
2023/07/18 23:47:36;;;;;;;;;;;;;;;21.00;100.00;95489.41;10478178;28;2132;-77
2023/07/18 23:52:40;;;;;;;;;;;;;;;21.13;100.00;95481.97;10480888;28;2087;-77
2023/07/18 23:57:43;;;;;;;;;;;;;;;21.31;100.00;95444.97;10477999;28;2123;-78
